Time;durP1;ratioP1;P1;durP2;ratioP2;P2;SDS_P1;SDS_P2;PMS_P1;PMS_P2;Temp;Humidity;BMP_temperature;BMP_pressure;BME280_temperature;BME280_humidity;BME280_pressure;Samples;Min_cycle;Max_cycle;Signal;HPM_P1;HPM_P2
2022/12/03 00:00:49;;;;;;;;;;;;;;;;;;5016588;28;19975;-89
2022/12/03 00:03:15;;;;;;;;;;;;;;;;;;5019108;28;20089;-89
2022/12/03 00:05:41;;;;;;;;;;;;;;;;;;5019116;28;20370;-89
2022/12/03 00:08:07;;;;;;;;;;;;;;;;;;5018732;28;19921;-89
2022/12/03 00:10:33;;;;;;;;;;;;;;;;;;5018944;28;19929;-89
2022/12/03 00:12:59;;;;;;;;;;;;;;;;;;5018600;28;20283;-89
2022/12/03 00:15:25;;;;;;;;;;;;;;;;;;5018517;28;20406;-89
2022/12/03 00:17:51;;;;;;;;;;;;;;;;;;5018369;28;20056;-88
2022/12/03 00:20:17;;;;;;;;;;;;;;;;;;5018333;28;19960;-89
2022/12/03 00:22:42;;;;;;;;;;;;;;;;;;5018739;28;20003;-90
2022/12/03 00:25:08;;;;;;;;;;;;;;;;;;5018802;28;19921;-90
2022/12/03 00:27:34;;;;;;;;;;;;;;;;;;5018875;28;20007;-90
2022/12/03 00:30:00;;;;;;;;;;;;;;;;;;5018357;28;20378;-90
2022/12/03 00:32:26;;;;;;;;;;;;;;;;;;5018200;28;19976;-89
2022/12/03 00:34:52;;;;;;;;;;;;;;;;;;5018269;28;20300;-89
2022/12/03 00:37:18;;;;;;;;;;;;;;;;;;5018498;28;20308;-89
2022/12/03 00:39:44;;;;;;;;;;;;;;;;;;5034731;28;20281;-89
2022/12/03 00:42:10;;;;;;;;;;;;;;;;;;5018372;28;19925;-89
2022/12/03 00:44:36;;;;;;;;;;;;;;;;;;5018486;28;19921;-89
2022/12/03 00:47:02;;;;;;;;;;;;;;;;;;5017847;28;19921;-89
2022/12/03 00:49:28;;;;;;;;;;;;;;;;;;5017937;28;19925;-89
2022/12/03 00:51:54;;;;;;;;;;;;;;;;;;5018124;28;19928;-90
2022/12/03 00:54:19;;;;;;;;;;;;;;;;;;5018066;28;20380;-89
2022/12/03 00:56:45;;;;;;;;;;;;;;;;;;5018289;28;19928;-90
2022/12/03 00:59:11;;;;;;;;;;;;;;;;;;5018285;28;19978;-89
2022/12/03 01:01:37;;;;;;;;;;;;;;;;;;5017701;28;20016;-89
2022/12/03 01:04:03;;;;;;;;;;;;;;;;;;5017502;28;19929;-90
2022/12/03 01:06:29;;;;;;;;;;;;;;;;;;5017632;28;19921;-90
2022/12/03 01:08:55;;;;;;;;;;;;;;;;;;5017467;28;20339;-90
2022/12/03 01:11:36;;;;;;;;;;;;;;;;;;5016963;28;19921;-89
2022/12/03 01:14:02;;;;;;;;;;;;;;;;;;5017797;28;19921;-89
2022/12/03 01:16:28;;;;;;;;;;;;;;;;;;5017757;28;20400;-89
2022/12/03 01:18:54;;;;;;;;;;;;;;;;;;5017379;28;19921;-89
2022/12/03 01:21:20;;;;;;;;;;;;;;;;;;5017281;28;19921;-89
2022/12/03 01:23:46;;;;;;;;;;;;;;;;;;5017271;28;19967;-89
2022/12/03 01:26:12;;;;;;;;;;;;;;;;;;5017836;28;19964;-89
2022/12/03 01:28:37;;;;;;;;;;;;;;;;;;5017563;28;20020;-90
2022/12/03 01:33:48;;;;;;;;;;;;;;;;;;5017090;28;19921;-90
2022/12/03 01:36:14;;;;;;;;;;;;;;;;;;5017029;28;19921;-90
2022/12/03 01:38:40;;;;;;;;;;;;;;;;;;5017170;28;20284;-89
2022/12/03 01:41:06;;;;;;;;;;;;;;;;;;5017000;28;19928;-89
2022/12/03 01:43:32;;;;;;;;;;;;;;;;;;5017041;28;19925;-89
2022/12/03 01:45:57;;;;;;;;;;;;;;;;;;5017151;28;20292;-90
2022/12/03 01:48:23;;;;;;;;;;;;;;;;;;5017023;28;19921;-89
2022/12/03 01:50:49;;;;;;;;;;;;;;;;;;5016727;28;19925;-90
2022/12/03 01:53:17;;;;;;;;;;;;;;;;;;5017134;28;20035;-90
2022/12/03 01:55:43;;;;;;;;;;;;;;;;;;5017116;28;19925;-90
2022/12/03 01:58:09;;;;;;;;;;;;;;;;;;5017084;28;19944;-90
2022/12/03 02:00:34;;;;;;;;;;;;;;;;;;5017029;28;20364;-90
2022/12/03 02:03:00;;;;;;;;;;;;;;;;;;5016588;28;19928;-90
2022/12/03 02:05:26;;;;;;;;;;;;;;;;;;5016896;28;19944;-89
2022/12/03 02:07:52;;;;;;;;;;;;;;;;;;5016484;28;20380;-90
2022/12/03 02:10:18;;;;;;;;;;;;;;;;;;5016303;28;19951;-90
2022/12/03 02:12:44;;;;;;;;;;;;;;;;;;5016728;28;19955;-89
2022/12/03 02:15:10;;;;;;;;;;;;;;;;;;5016476;28;19921;-89
2022/12/03 02:17:36;;;;;;;;;;;;;;;;;;5016119;28;19932;-90
2022/12/03 02:20:02;;;;;;;;;;;;;;;;;;5016433;28;20379;-89
2022/12/03 02:22:28;;;;;;;;;;;;;;;;;;5015727;28;20380;-89
2022/12/03 02:24:54;;;;;;;;;;;;;;;;;;5016049;28;19921;-90
2022/12/03 02:27:20;;;;;;;;;;;;;;;;;;5016357;28;20395;-89
2022/12/03 02:29:46;;;;;;;;;;;;;;;;;;5016261;28;19932;-90
2022/12/03 02:32:12;;;;;;;;;;;;;;;;;;5016168;28;19921;-90
2022/12/03 02:34:37;;;;;;;;;;;;;;;;;;5015932;28;19921;-90
2022/12/03 02:37:03;;;;;;;;;;;;;;;;;;5016323;28;19921;-90
2022/12/03 02:39:29;;;;;;;;;;;;;;;;;;5016510;28;19943;-90
2022/12/03 02:44:40;;;;;;;;;;;;;;;;;;5015782;28;20292;-89
2022/12/03 02:47:06;;;;;;;;;;;;;;;;;;5015834;28;19927;-90
2022/12/03 02:49:32;;;;;;;;;;;;;;;;;;5015785;28;19983;-90
2022/12/03 02:51:58;;;;;;;;;;;;;;;;;;5015770;28;20009;-90
2022/12/03 02:54:24;;;;;;;;;;;;;;;;;;5015876;28;20287;-90
2022/12/03 02:56:49;;;;;;;;;;;;;;;;;;5015696;28;19928;-89
2022/12/03 02:59:15;;;;;;;;;;;;;;;;;;5016008;28;19984;-89
2022/12/03 03:01:42;;;;;;;;;;;;;;;;;;5015882;28;19921;-89
2022/12/03 03:04:08;;;;;;;;;;;;;;;;;;5015595;28;19948;-89
2022/12/03 03:06:34;;;;;;;;;;;;;;;;;;5015499;28;19947;-89
2022/12/03 03:09:00;;;;;;;;;;;;;;;;;;5015444;28;20023;-90
2022/12/03 03:11:26;;;;;;;;;;;;;;;;;;5015439;28;19944;-89
2022/12/03 03:14:08;;;;;;;;;;;;;;;;;;4974644;28;21031;-89
2022/12/03 03:16:34;;;;;;;;;;;;;;;;;;5015110;28;19921;-89
2022/12/03 03:18:59;;;;;;;;;;;;;;;;;;5015426;28;19921;-90
2022/12/03 03:21:25;;;;;;;;;;;;;;;;;;5015089;28;20369;-89
2022/12/03 03:23:51;;;;;;;;;;;;;;;;;;5015259;28;19996;-89
2022/12/03 03:26:17;;;;;;;;;;;;;;;;;;5015274;28;19928;-89
2022/12/03 03:28:43;;;;;;;;;;;;;;;;;;5014979;28;20032;-89
2022/12/03 03:31:09;;;;;;;;;;;;;;;;;;5015090;28;19921;-89
2022/12/03 03:33:35;;;;;;;;;;;;;;;;;;5014951;28;19976;-90
2022/12/03 03:36:01;;;;;;;;;;;;;;;;;;5015016;28;20339;-89
2022/12/03 03:38:27;;;;;;;;;;;;;;;;;;5015376;28;19983;-89
2022/12/03 03:40:53;;;;;;;;;;;;;;;;;;5015307;28;20345;-89
2022/12/03 03:43:19;;;;;;;;;;;;;;;;;;5015019;28;20296;-89
2022/12/03 03:45:45;;;;;;;;;;;;;;;;;;5014981;28;19928;-89
2022/12/03 03:48:11;;;;;;;;;;;;;;;;;;5015042;28;19921;-90
2022/12/03 03:50:37;;;;;;;;;;;;;;;;;;5014818;28;19975;-89
2022/12/03 03:53:03;;;;;;;;;;;;;;;;;;5014862;28;19995;-89
2022/12/03 03:55:29;;;;;;;;;;;;;;;;;;5014957;28;19921;-89
2022/12/03 03:57:55;;;;;;;;;;;;;;;;;;5014895;28;19928;-90
2022/12/03 04:00:21;;;;;;;;;;;;;;;;;;5015219;28;20379;-89
2022/12/03 04:02:46;;;;;;;;;;;;;;;;;;5015208;28;20400;-89
2022/12/03 04:05:12;;;;;;;;;;;;;;;;;;5014706;28;19921;-88
2022/12/03 04:07:38;;;;;;;;;;;;;;;;;;5014822;28;19928;-89
2022/12/03 04:12:54;;;;;;;;;;;;;;;;;;5014876;28;20032;-89
2022/12/03 04:12:56;;;;;;;;;;;;;;;;;;5015004;28;19922;-89
2022/12/03 04:15:22;;;;;;;;;;;;;;;;;;5014788;28;20011;-91
2022/12/03 04:20:33;;;;;;;;;;;;;;;;;;5014911;28;20363;-91
2022/12/03 04:22:58;;;;;;;;;;;;;;;;;;5014646;28;19983;-91
2022/12/03 04:30:54;;;;;;;;;;;;;;;;;;5014789;28;20380;-91
2022/12/03 04:36:04;;;;;;;;;;;;;;;;;;5014579;28;20391;-91
2022/12/03 04:38:30;;;;;;;;;;;;;;;;;;5014558;28;19921;-90
2022/12/03 04:40:59;;;;;;;;;;;;;;;;;;5014623;28;20032;-91
2022/12/03 04:43:25;;;;;;;;;;;;;;;;;;5014502;28;19981;-90
2022/12/03 04:45:51;;;;;;;;;;;;;;;;;;5015555;28;19926;-91
2022/12/03 04:48:17;;;;;;;;;;;;;;;;;;5018476;28;19921;-90
2022/12/03 04:50:43;;;;;;;;;;;;;;;;;;5018099;28;19972;-90
2022/12/03 04:53:09;;;;;;;;;;;;;;;;;;5018028;28;20012;-91
2022/12/03 04:55:35;;;;;;;;;;;;;;;;;;5018500;28;19921;-90
2022/12/03 04:58:01;;;;;;;;;;;;;;;;;;5017911;28;20011;-91
2022/12/03 05:00:27;;;;;;;;;;;;;;;;;;5018184;28;19975;-91
2022/12/03 05:02:52;;;;;;;;;;;;;;;;;;5018058;28;20368;-91
2022/12/03 05:05:18;;;;;;;;;;;;;;;;;;5018010;28;19925;-89
2022/12/03 05:07:44;;;;;;;;;;;;;;;;;;5017731;28;19921;-90
2022/12/03 05:10:10;;;;;;;;;;;;;;;;;;5017680;28;19947;-90
2022/12/03 05:12:36;;;;;;;;;;;;;;;;;;5017468;28;20388;-90
2022/12/03 05:15:02;;;;;;;;;;;;;;;;;;5017516;28;19925;-90
2022/12/03 05:17:28;;;;;;;;;;;;;;;;;;5017665;28;19965;-90
2022/12/03 05:22:39;;;;;;;;;;;;;;;;;;5017469;28;19921;-90
2022/12/03 05:25:04;;;;;;;;;;;;;;;;;;5017673;28;19928;-90
2022/12/03 05:27:30;;;;;;;;;;;;;;;;;;5017305;28;19925;-90
2022/12/03 05:29:56;;;;;;;;;;;;;;;;;;5017299;28;20377;-90
2022/12/03 05:32:22;;;;;;;;;;;;;;;;;;5017254;28;20429;-90
2022/12/03 05:34:48;;;;;;;;;;;;;;;;;;5017176;28;19927;-90
2022/12/03 05:37:14;;;;;;;;;;;;;;;;;;5017473;28;19921;-90
2022/12/03 05:39:40;;;;;;;;;;;;;;;;;;5017206;28;19929;-90
2022/12/03 05:44:51;;;;;;;;;;;;;;;;;;5017079;28;19928;-90
2022/12/03 05:47:17;;;;;;;;;;;;;;;;;;5016928;28;19921;-90
2022/12/03 05:49:43;;;;;;;;;;;;;;;;;;5016910;28;19983;-89
2022/12/03 05:52:08;;;;;;;;;;;;;;;;;;5017023;28;20360;-90
2022/12/03 05:54:34;;;;;;;;;;;;;;;;;;5016901;28;19921;-90
2022/12/03 05:57:00;;;;;;;;;;;;;;;;;;5016454;28;19921;-90
2022/12/03 05:59:26;;;;;;;;;;;;;;;;;;5016392;28;20017;-90
2022/12/03 06:01:52;;;;;;;;;;;;;;;;;;5016745;28;20007;-89
2022/12/03 06:04:18;;;;;;;;;;;;;;;;;;5016615;28;20485;-90
2022/12/03 06:06:44;;;;;;;;;;;;;;;;;;5016787;28;19921;-90
2022/12/03 06:09:10;;;;;;;;;;;;;;;;;;5016519;28;19944;-90
2022/12/03 06:11:36;;;;;;;;;;;;;;;;;;5016443;28;19971;-90
2022/12/03 06:14:02;;;;;;;;;;;;;;;;;;5016674;28;20316;-90
2022/12/03 06:16:28;;;;;;;;;;;;;;;;;;5016413;28;20003;-90
2022/12/03 06:18:53;;;;;;;;;;;;;;;;;;5016739;28;19943;-90
2022/12/03 06:21:19;;;;;;;;;;;;;;;;;;5016667;28;19994;-90
2022/12/03 06:23:45;;;;;;;;;;;;;;;;;;5016207;28;20008;-90
2022/12/03 06:26:11;;;;;;;;;;;;;;;;;;5016278;28;19928;-90
2022/12/03 06:28:37;;;;;;;;;;;;;;;;;;5016186;28;19928;-90
2022/12/03 06:31:03;;;;;;;;;;;;;;;;;;5016066;28;19925;-89
2022/12/03 06:33:29;;;;;;;;;;;;;;;;;;5016312;28;20296;-90
2022/12/03 06:35:55;;;;;;;;;;;;;;;;;;5016020;28;20368;-90
2022/12/03 06:38:21;;;;;;;;;;;;;;;;;;5016147;28;19921;-89
2022/12/03 06:40:47;;;;;;;;;;;;;;;;;;5015898;28;19960;-90
2022/12/03 06:43:13;;;;;;;;;;;;;;;;;;5016122;28;19969;-90
2022/12/03 06:45:39;;;;;;;;;;;;;;;;;;5016062;28;19961;-90
2022/12/03 06:48:04;;;;;;;;;;;;;;;;;;5016485;28;19921;-90
2022/12/03 06:50:30;;;;;;;;;;;;;;;;;;5015865;28;20312;-90
2022/12/03 06:52:56;;;;;;;;;;;;;;;;;;5016068;28;19975;-90
2022/12/03 06:55:22;;;;;;;;;;;;;;;;;;5015755;28;19968;-89
2022/12/03 06:57:48;;;;;;;;;;;;;;;;;;5016087;28;20283;-89
2022/12/03 07:00:14;;;;;;;;;;;;;;;;;;5015822;28;19921;-89
2022/12/03 07:02:40;;;;;;;;;;;;;;;;;;5015595;28;19928;-90
2022/12/03 07:05:06;;;;;;;;;;;;;;;;;;5015622;28;19944;-90
2022/12/03 07:07:32;;;;;;;;;;;;;;;;;;5015669;28;19921;-90
2022/12/03 07:09:58;;;;;;;;;;;;;;;;;;5015339;28;19925;-90
2022/12/03 07:12:24;;;;;;;;;;;;;;;;;;5015784;28;19944;-89
2022/12/03 07:14:50;;;;;;;;;;;;;;;;;;5015664;28;19925;-89
2022/12/03 07:17:16;;;;;;;;;;;;;;;;;;5015172;28;19929;-90
2022/12/03 07:19:42;;;;;;;;;;;;;;;;;;4999050;28;19921;-89
2022/12/03 07:22:08;;;;;;;;;;;;;;;;;;5015428;28;19922;-90
2022/12/03 07:24:34;;;;;;;;;;;;;;;;;;5015301;28;19925;-90
2022/12/03 07:26:59;;;;;;;;;;;;;;;;;;4999314;28;20276;-90
2022/12/03 07:29:25;;;;;;;;;;;;;;;;;;5015332;28;19925;-90
2022/12/03 07:31:52;;;;;;;;;;;;;;;;;;4998809;28;19928;-90
2022/12/03 07:34:17;;;;;;;;;;;;;;;;;;5015106;28;19920;-89
2022/12/03 07:36:43;;;;;;;;;;;;;;;;;;5015127;28;19929;-88
2022/12/03 07:39:09;;;;;;;;;;;;;;;;;;5015014;28;19925;-88
2022/12/03 07:41:35;;;;;;;;;;;;;;;;;;4998590;28;20327;-89
2022/12/03 07:44:01;;;;;;;;;;;;;;;;;;5015178;28;19921;-90
2022/12/03 07:46:27;;;;;;;;;;;;;;;;;;4998515;28;20316;-90
2022/12/03 07:48:53;;;;;;;;;;;;;;;;;;5000369;28;19948;-93
2022/12/03 07:51:19;;;;;;;;;;;;;;;;;;5000592;28;19928;-93
2022/12/03 07:53:45;;;;;;;;;;;;;;;;;;4998926;28;19944;-89
2022/12/03 07:56:11;;;;;;;;;;;;;;;;;;4998468;28;19968;-92
2022/12/03 07:58:37;;;;;;;;;;;;;;;;;;4998840;28;20391;-92
2022/12/03 08:01:03;;;;;;;;;;;;;;;;;;4998500;28;19979;-90
2022/12/03 08:03:29;;;;;;;;;;;;;;;;;;4998713;28;20324;-90
2022/12/03 08:05:55;;;;;;;;;;;;;;;;;;4998861;28;20343;-92
2022/12/03 08:08:22;;;;;;;;;;;;;;;;;;4998851;28;19971;-92
2022/12/03 08:10:48;;;;;;;;;;;;;;;;;;4998946;28;19925;-90
2022/12/03 08:13:14;;;;;;;;;;;;;;;;;;4998278;28;19930;-91
2022/12/03 08:15:40;;;;;;;;;;;;;;;;;;4998239;28;20372;-91
2022/12/03 08:18:06;;;;;;;;;;;;;;;;;;5000973;28;19932;-89
2022/12/03 08:20:32;;;;;;;;;;;;;;;;;;4995049;28;19922;-90
2022/12/03 08:22:58;;;;;;;;;;;;;;;;;;4998979;28;19917;-90
2022/12/03 08:25:26;;;;;;;;;;;;;;;;;;4999385;28;20160;-90
2022/12/03 08:27:52;;;;;;;;;;;;;;;;;;4999154;28;19935;-91
2022/12/03 08:30:18;;;;;;;;;;;;;;;;;;4998774;28;19932;-90
2022/12/03 08:32:46;;;;;;;;;;;;;;;;;;4999087;28;19928;-91
2022/12/03 08:35:13;;;;;;;;;;;;;;;;;;5015258;28;20365;-90
2022/12/03 08:37:39;;;;;;;;;;;;;;;;;;4999227;28;19965;-91
2022/12/03 08:40:05;;;;;;;;;;;;;;;;;;5016685;28;19928;-92
2022/12/03 08:42:40;;;;;;;;;;;;;;;;;;4999107;28;20000;-90
2022/12/03 08:45:07;;;;;;;;;;;;;;;;;;4998823;28;19922;-94
2022/12/03 08:47:34;;;;;;;;;;;;;;;;;;4998137;28;19921;-91
2022/12/03 08:50:02;;;;;;;;;;;;;;;;;;4998713;28;19925;-91
2022/12/03 08:52:28;;;;;;;;;;;;;;;;;;4982676;28;20432;-91
2022/12/03 08:54:53;;;;;;;;;;;;;;;;;;5000894;28;19983;-92
2022/12/03 08:57:19;;;;;;;;;;;;;;;;;;5000082;28;19922;-91
2022/12/03 08:59:47;;;;;;;;;;;;;;;;;;4968483;28;19922;-92
2022/12/03 09:02:12;;;;;;;;;;;;;;;;;;4974510;28;19965;-90
2022/12/03 09:04:38;;;;;;;;;;;;;;;;;;5001821;28;19976;-89
2022/12/03 09:07:04;;;;;;;;;;;;;;;;;;4985831;28;19922;-91
2022/12/03 09:09:30;;;;;;;;;;;;;;;;;;4977551;28;20013;-90
2022/12/03 09:11:56;;;;;;;;;;;;;;;;;;4987352;28;19914;-90
2022/12/03 09:14:22;;;;;;;;;;;;;;;;;;4984119;28;19980;-89
2022/12/03 09:16:48;;;;;;;;;;;;;;;;;;4982576;28;19909;-92
2022/12/03 09:19:14;;;;;;;;;;;;;;;;;;5005743;28;19926;-91
2022/12/03 09:21:40;;;;;;;;;;;;;;;;;;5030280;28;19944;-90
2022/12/03 09:24:06;;;;;;;;;;;;;;;;;;4986403;28;19929;-90
2022/12/03 09:26:32;;;;;;;;;;;;;;;;;;4988441;28;20446;-91
2022/12/03 09:28:58;;;;;;;;;;;;;;;;;;4988170;28;19933;-91
2022/12/03 09:31:24;;;;;;;;;;;;;;;;;;5018383;28;19976;-91
2022/12/03 09:33:50;;;;;;;;;;;;;;;;;;4986076;28;19928;-91
2022/12/03 09:36:16;;;;;;;;;;;;;;;;;;4985419;28;20012;-90
2022/12/03 09:38:42;;;;;;;;;;;;;;;;;;4983813;28;20332;-89
2022/12/03 09:41:07;;;;;;;;;;;;;;;;;;4987404;28;19932;-87
2022/12/03 09:43:33;;;;;;;;;;;;;;;;;;4986339;28;20328;-90
2022/12/03 09:45:59;;;;;;;;;;;;;;;;;;4984498;28;19972;-91
2022/12/03 09:48:25;;;;;;;;;;;;;;;;;;4984207;28;19991;-91
2022/12/03 09:50:51;;;;;;;;;;;;;;;;;;4984539;28;19926;-91
2022/12/03 09:53:17;;;;;;;;;;;;;;;;;;5016100;28;20391;-90
2022/12/03 09:55:43;;;;;;;;;;;;;;;;;;5015723;28;19932;-91
2022/12/03 09:58:09;;;;;;;;;;;;;;;;;;4982074;28;19926;-90
2022/12/03 10:00:35;;;;;;;;;;;;;;;;;;4981723;28;19926;-91
2022/12/03 10:03:01;;;;;;;;;;;;;;;;;;4981255;28;19921;-91
2022/12/03 10:05:33;;;;;;;;;;;;;;;;;;5015143;28;19926;-91
2022/12/03 10:07:59;;;;;;;;;;;;;;;;;;5013881;28;19985;-91
2022/12/03 10:10:25;;;;;;;;;;;;;;;;;;4980905;28;19925;-91
2022/12/03 10:12:51;;;;;;;;;;;;;;;;;;4980632;28;19922;-91
2022/12/03 10:15:17;;;;;;;;;;;;;;;;;;4980470;28;20439;-91
2022/12/03 10:17:43;;;;;;;;;;;;;;;;;;5013087;28;19933;-91
2022/12/03 10:20:08;;;;;;;;;;;;;;;;;;4996622;28;20273;-91
2022/12/03 10:22:36;;;;;;;;;;;;;;;;;;5013018;28;20253;-91
2022/12/03 10:25:02;;;;;;;;;;;;;;;;;;4980435;28;19928;-90
2022/12/03 10:27:28;;;;;;;;;;;;;;;;;;5013033;28;20296;-90
2022/12/03 10:29:54;;;;;;;;;;;;;;;;;;4980565;28;19932;-89
2022/12/03 10:32:20;;;;;;;;;;;;;;;;;;4980798;28;19921;-94
2022/12/03 10:34:46;;;;;;;;;;;;;;;;;;4980292;28;19928;-91
2022/12/03 10:37:12;;;;;;;;;;;;;;;;;;5012896;28;19921;-91
2022/12/03 10:39:37;;;;;;;;;;;;;;;;;;4980410;28;19944;-89
2022/12/03 10:42:03;;;;;;;;;;;;;;;;;;4980131;28;19933;-90
2022/12/03 10:44:29;;;;;;;;;;;;;;;;;;5012315;28;20343;-89
2022/12/03 10:46:55;;;;;;;;;;;;;;;;;;4980094;28;19928;-91
2022/12/03 10:49:21;;;;;;;;;;;;;;;;;;4979969;28;20064;-93
2022/12/03 10:51:47;;;;;;;;;;;;;;;;;;5012838;28;19959;-90
2022/12/03 10:54:13;;;;;;;;;;;;;;;;;;5013034;28;20475;-91
2022/12/03 10:56:39;;;;;;;;;;;;;;;;;;5012542;28;19932;-91
2022/12/03 10:59:05;;;;;;;;;;;;;;;;;;4980736;28;19921;-90
2022/12/03 11:01:31;;;;;;;;;;;;;;;;;;4980110;28;19929;-91
2022/12/03 11:03:57;;;;;;;;;;;;;;;;;;4980720;28;20020;-91
2022/12/03 11:06:23;;;;;;;;;;;;;;;;;;4985011;28;19932;-93
2022/12/03 11:08:49;;;;;;;;;;;;;;;;;;5013005;28;19922;-89
2022/12/03 11:11:15;;;;;;;;;;;;;;;;;;4979472;28;20384;-92
2022/12/03 11:13:41;;;;;;;;;;;;;;;;;;4979758;28;19976;-90
2022/12/03 11:16:07;;;;;;;;;;;;;;;;;;4979669;28;19965;-92
2022/12/03 11:18:33;;;;;;;;;;;;;;;;;;4979569;28;19941;-92
2022/12/03 11:20:59;;;;;;;;;;;;;;;;;;4979339;28;20284;-90
2022/12/03 11:23:24;;;;;;;;;;;;;;;;;;4995689;28;20016;-88
2022/12/03 11:25:50;;;;;;;;;;;;;;;;;;4995929;28;20377;-90
2022/12/03 11:28:16;;;;;;;;;;;;;;;;;;4995669;28;20022;-90
2022/12/03 11:30:42;;;;;;;;;;;;;;;;;;4979254;28;20292;-91
2022/12/03 11:33:08;;;;;;;;;;;;;;;;;;4979622;28;19921;-91
2022/12/03 11:35:34;;;;;;;;;;;;;;;;;;4979396;28;19921;-91
2022/12/03 11:38:01;;;;;;;;;;;;;;;;;;4979289;28;19923;-91
2022/12/03 11:40:28;;;;;;;;;;;;;;;;;;4995610;28;20111;-91
2022/12/03 11:42:53;;;;;;;;;;;;;;;;;;4979767;28;20028;-93
2022/12/03 11:45:19;;;;;;;;;;;;;;;;;;4979773;28;19964;-93
2022/12/03 11:47:48;;;;;;;;;;;;;;;;;;4979617;28;19967;-95
2022/12/03 11:50:14;;;;;;;;;;;;;;;;;;4979634;28;19926;-92
2022/12/03 11:52:40;;;;;;;;;;;;;;;;;;4979489;28;19929;-93
2022/12/03 11:55:08;;;;;;;;;;;;;;;;;;4979209;28;19937;-93
2022/12/03 11:57:34;;;;;;;;;;;;;;;;;;4995377;28;19922;-93
2022/12/03 12:00:00;;;;;;;;;;;;;;;;;;4979596;28;19981;-95
2022/12/03 12:02:26;;;;;;;;;;;;;;;;;;4995599;28;19922;-93
2022/12/03 12:04:52;;;;;;;;;;;;;;;;;;4979433;28;19929;-93
2022/12/03 12:07:18;;;;;;;;;;;;;;;;;;4979067;28;20356;-92
2022/12/03 12:09:44;;;;;;;;;;;;;;;;;;4995225;28;19933;-92
2022/12/03 12:12:10;;;;;;;;;;;;;;;;;;4979271;28;19921;-92
2022/12/03 12:14:39;;;;;;;;;;;;;;;;;;4996703;28;20360;-92
2022/12/03 12:17:04;;;;;;;;;;;;;;;;;;4978894;28;19931;-91
2022/12/03 12:19:31;;;;;;;;;;;;;;;;;;4978960;28;20000;-92
2022/12/03 12:21:56;;;;;;;;;;;;;;;;;;4979623;28;20062;-92
2022/12/03 12:24:22;;;;;;;;;;;;;;;;;;4979513;28;20368;-92
2022/12/03 12:26:48;;;;;;;;;;;;;;;;;;4979096;28;20296;-91
2022/12/03 12:29:14;;;;;;;;;;;;;;;;;;4978734;28;20348;-91
2022/12/03 12:31:40;;;;;;;;;;;;;;;;;;4978931;28;19972;-92
2022/12/03 12:34:06;;;;;;;;;;;;;;;;;;4979096;28;19972;-92
2022/12/03 12:36:32;;;;;;;;;;;;;;;;;;4979094;28;19929;-93
2022/12/03 12:38:58;;;;;;;;;;;;;;;;;;4978696;28;19929;-92
2022/12/03 12:41:24;;;;;;;;;;;;;;;;;;4978819;28;20012;-92
2022/12/03 12:43:50;;;;;;;;;;;;;;;;;;4978523;28;19964;-91
2022/12/03 12:46:17;;;;;;;;;;;;;;;;;;4978846;28;20027;-92
2022/12/03 12:48:45;;;;;;;;;;;;;;;;;;4995048;28;20452;-92
2022/12/03 12:51:11;;;;;;;;;;;;;;;;;;4978996;28;19921;-92
2022/12/03 12:53:37;;;;;;;;;;;;;;;;;;4979129;28;19929;-93
2022/12/03 12:56:03;;;;;;;;;;;;;;;;;;4978864;28;20301;-92
2022/12/03 12:58:29;;;;;;;;;;;;;;;;;;4978234;28;19945;-92
2022/12/03 13:00:55;;;;;;;;;;;;;;;;;;4978567;28;20312;-92
2022/12/03 13:03:21;;;;;;;;;;;;;;;;;;4978518;28;19921;-93
2022/12/03 13:05:47;;;;;;;;;;;;;;;;;;4978498;28;19922;-92
2022/12/03 13:08:13;;;;;;;;;;;;;;;;;;4997247;28;19925;-92
2022/12/03 13:10:39;;;;;;;;;;;;;;;;;;4982038;28;20399;-93
2022/12/03 13:13:05;;;;;;;;;;;;;;;;;;4982647;28;19928;-87
2022/12/03 13:15:30;;;;;;;;;;;;;;;;;;4981499;28;19921;-91
2022/12/03 13:17:56;;;;;;;;;;;;;;;;;;4978242;28;20128;-96
2022/12/03 13:20:22;;;;;;;;;;;;;;;;;;4962985;28;19925;-91
2022/12/03 13:22:48;;;;;;;;;;;;;;;;;;4977946;28;20340;-93
2022/12/03 13:25:14;;;;;;;;;;;;;;;;;;4962732;28;20009;-90
2022/12/03 13:27:40;;;;;;;;;;;;;;;;;;4970263;28;20012;-94
2022/12/03 13:30:06;;;;;;;;;;;;;;;;;;4981407;28;19947;-92
2022/12/03 13:32:32;;;;;;;;;;;;;;;;;;4981745;28;19922;-92
2022/12/03 13:34:58;;;;;;;;;;;;;;;;;;4998833;28;19925;-90
2022/12/03 13:37:24;;;;;;;;;;;;;;;;;;4984606;28;19929;-91
2022/12/03 13:39:50;;;;;;;;;;;;;;;;;;4987468;28;19933;-92
2022/12/03 13:45:01;;;;;;;;;;;;;;;;;;5007956;28;19980;-94
2022/12/03 13:47:27;;;;;;;;;;;;;;;;;;4981478;28;19925;-92
2022/12/03 13:49:52;;;;;;;;;;;;;;;;;;4981313;28;19937;-93
2022/12/03 13:52:18;;;;;;;;;;;;;;;;;;4981131;28;19921;-93
2022/12/03 13:54:44;;;;;;;;;;;;;;;;;;4980912;28;19921;-91
2022/12/03 13:57:10;;;;;;;;;;;;;;;;;;4981278;28;19921;-91
2022/12/03 13:59:39;;;;;;;;;;;;;;;;;;4981429;28;19921;-92
2022/12/03 14:02:05;;;;;;;;;;;;;;;;;;4980783;28;19979;-91
2022/12/03 14:04:31;;;;;;;;;;;;;;;;;;4980948;28;19947;-89
2022/12/03 14:06:57;;;;;;;;;;;;;;;;;;4980720;28;19932;-90
2022/12/03 14:09:23;;;;;;;;;;;;;;;;;;4980558;28;20407;-89
2022/12/03 14:14:33;;;;;;;;;;;;;;;;;;4996499;28;20020;-89
2022/12/03 14:16:59;;;;;;;;;;;;;;;;;;4980373;28;19965;-91
2022/12/03 14:19:25;;;;;;;;;;;;;;;;;;4995563;28;20016;-91
2022/12/03 14:21:51;;;;;;;;;;;;;;;;;;4996604;28;19925;-88
2022/12/03 14:24:17;;;;;;;;;;;;;;;;;;4996659;28;19921;-89
2022/12/03 14:26:43;;;;;;;;;;;;;;;;;;4996830;28;19951;-89
2022/12/03 14:29:09;;;;;;;;;;;;;;;;;;4996311;28;20400;-91
2022/12/03 14:31:35;;;;;;;;;;;;;;;;;;4996702;28;20346;-90
2022/12/03 14:34:01;;;;;;;;;;;;;;;;;;4996498;28;19928;-90
2022/12/03 14:36:27;;;;;;;;;;;;;;;;;;4996296;28;20010;-91
2022/12/03 14:38:53;;;;;;;;;;;;;;;;;;4994234;28;20031;-89
2022/12/03 14:44:03;;;;;;;;;;;;;;;;;;4976693;28;19976;-90
2022/12/03 14:46:29;;;;;;;;;;;;;;;;;;4960749;28;19922;-91
2022/12/03 14:48:55;;;;;;;;;;;;;;;;;;4976167;28;19922;-91
2022/12/03 14:51:21;;;;;;;;;;;;;;;;;;4960160;28;20329;-90
2022/12/03 14:53:47;;;;;;;;;;;;;;;;;;4960502;28;19961;-90
2022/12/03 14:56:13;;;;;;;;;;;;;;;;;;4960716;28;19937;-90
2022/12/03 14:58:39;;;;;;;;;;;;;;;;;;4976826;28;20207;-90
2022/12/03 15:01:05;;;;;;;;;;;;;;;;;;4960226;28;19990;-90
2022/12/03 15:03:31;;;;;;;;;;;;;;;;;;4976743;28;19922;-90
2022/12/03 15:05:59;;;;;;;;;;;;;;;;;;4976464;28;20442;-90
2022/12/03 15:08:25;;;;;;;;;;;;;;;;;;4976204;28;19929;-90
2022/12/03 15:10:51;;;;;;;;;;;;;;;;;;4976418;28;19933;-89
2022/12/03 15:13:17;;;;;;;;;;;;;;;;;;4976284;28;20481;-91
2022/12/03 15:15:43;;;;;;;;;;;;;;;;;;4960007;28;20369;-90
2022/12/03 15:18:08;;;;;;;;;;;;;;;;;;4970407;28;19933;-91
2022/12/03 15:20:34;;;;;;;;;;;;;;;;;;4976288;28;19929;-89
2022/12/03 15:23:00;;;;;;;;;;;;;;;;;;4975846;28;19922;-88
2022/12/03 15:25:26;;;;;;;;;;;;;;;;;;4976051;28;19926;-86
2022/12/03 15:27:52;;;;;;;;;;;;;;;;;;4992321;28;19929;-88
2022/12/03 15:30:19;;;;;;;;;;;;;;;;;;4991852;28;19932;-86
2022/12/03 15:32:45;;;;;;;;;;;;;;;;;;4975979;28;19926;-89
2022/12/03 15:35:16;;;;;;;;;;;;;;;;;;4992471;28;20090;-86
2022/12/03 15:37:42;;;;;;;;;;;;;;;;;;4992145;28;19948;-86
2022/12/03 15:40:08;;;;;;;;;;;;;;;;;;4992105;28;19926;-86
2022/12/03 15:42:34;;;;;;;;;;;;;;;;;;4976084;28;19988;-86
2022/12/03 15:45:00;;;;;;;;;;;;;;;;;;4991863;28;19929;-86
2022/12/03 15:47:25;;;;;;;;;;;;;;;;;;4975898;28;19929;-86
2022/12/03 15:49:51;;;;;;;;;;;;;;;;;;4975590;28;19934;-86
2022/12/03 15:52:17;;;;;;;;;;;;;;;;;;4991841;28;19956;-87
2022/12/03 15:54:44;;;;;;;;;;;;;;;;;;4991697;28;19922;-87
2022/12/03 15:57:10;;;;;;;;;;;;;;;;;;4975695;28;20365;-87
2022/12/03 15:59:36;;;;;;;;;;;;;;;;;;4975657;28;19929;-87
2022/12/03 16:02:02;;;;;;;;;;;;;;;;;;4975548;28;19922;-86
2022/12/03 16:04:28;;;;;;;;;;;;;;;;;;4991880;28;19922;-86
2022/12/03 16:06:54;;;;;;;;;;;;;;;;;;4975561;28;19921;-85
2022/12/03 16:09:20;;;;;;;;;;;;;;;;;;4991756;28;20033;-87
2022/12/03 16:11:46;;;;;;;;;;;;;;;;;;4991749;28;19998;-85
2022/12/03 16:14:12;;;;;;;;;;;;;;;;;;4975475;28;20277;-86
2022/12/03 16:16:37;;;;;;;;;;;;;;;;;;4994216;28;19961;-86
2022/12/03 16:19:03;;;;;;;;;;;;;;;;;;4978698;28;19925;-86
2022/12/03 16:21:29;;;;;;;;;;;;;;;;;;4978614;28;19921;-86
2022/12/03 16:23:55;;;;;;;;;;;;;;;;;;5012632;28;20088;-86
2022/12/03 16:26:21;;;;;;;;;;;;;;;;;;4979019;28;19922;-86
2022/12/03 16:28:47;;;;;;;;;;;;;;;;;;5011219;28;19921;-86
2022/12/03 16:31:13;;;;;;;;;;;;;;;;;;5011449;28;19934;-87
2022/12/03 16:33:39;;;;;;;;;;;;;;;;;;4978952;28;20385;-86
2022/12/03 16:36:05;;;;;;;;;;;;;;;;;;5011494;28;19991;-86
2022/12/03 16:38:32;;;;;;;;;;;;;;;;;;5011206;28;19922;-86
2022/12/03 16:40:58;;;;;;;;;;;;;;;;;;4978889;28;20365;-86
2022/12/03 16:43:24;;;;;;;;;;;;;;;;;;4982042;28;19921;-87
2022/12/03 16:46:01;;;;;;;;;;;;;;;;;;4984529;28;19921;-85
2022/12/03 16:48:27;;;;;;;;;;;;;;;;;;4998387;28;20019;-85
2022/12/03 16:50:53;;;;;;;;;;;;;;;;;;5014780;28;20032;-85
2022/12/03 16:53:19;;;;;;;;;;;;;;;;;;5016074;28;19921;-85
2022/12/03 16:55:45;;;;;;;;;;;;;;;;;;4982149;28;20388;-86
2022/12/03 16:58:11;;;;;;;;;;;;;;;;;;4998325;28;19965;-86
2022/12/03 17:00:37;;;;;;;;;;;;;;;;;;5014327;28;19964;-86
2022/12/03 17:03:03;;;;;;;;;;;;;;;;;;4981882;28;20336;-87
2022/12/03 17:05:28;;;;;;;;;;;;;;;;;;5014468;28;19941;-86
2022/12/03 17:07:54;;;;;;;;;;;;;;;;;;5014322;28;19921;-87